Time;durP1;ratioP1;P1;durP2;ratioP2;P2;SDS_P1;SDS_P2;PMS_P1;PMS_P2;Temp;Humidity;BMP_temperature;BMP_pressure;BME280_temperature;BME280_humidity;BME280_pressure;Samples;Min_cycle;Max_cycle;Signal;HPM_P1;HPM_P2
2022/11/07 07:52:56;;;;;;;6.03;2.38;;;;;;;10.34;85.85;96633.81;2066585;27;1220328;-68
2022/11/07 07:53:58;;;;;;;4.70;1.60;;;;;;;10.68;84.64;96641.94;2102620;28;20539;-69
2022/11/07 07:54:59;;;;;;;9.27;2.13;;;;;;;10.67;84.11;96629.81;2101419;28;20234;-69
2022/11/07 07:56:04;;;;;;;7.72;1.38;;;;;;;10.47;84.33;96630.69;2105196;28;20443;-69
2022/11/07 07:57:05;;;;;;;6.60;1.85;;;;;;;10.39;84.48;96636.25;2098118;28;20295;-69
2022/11/07 07:58:07;;;;;;;8.27;1.65;;;;;;;10.28;85.06;96636.69;2093230;28;20227;-69
2022/11/07 08:19:04;;;;;;;3.50;1.63;;;;;;;9.55;88.34;96626.69;2083177;28;20574;-67
2022/11/07 08:20:09;;;;;;;7.95;2.17;;;;;;;9.67;88.35;96651.41;2085077;28;20296;-67
2022/11/07 08:21:11;;;;;;;6.13;1.83;;;;;;;9.71;88.19;96646.91;2078914;28;20850;-68
2022/11/07 08:22:12;;;;;;;17.48;1.92;;;;;;;9.72;88.21;96648.63;2074088;28;20228;-67
2022/11/07 08:37:31;;;;;;;6.05;1.75;;;;;;;10.06;85.82;96647.22;2063071;27;1293191;-67
2022/11/07 08:38:36;;;;;;;10.45;1.58;;;;;;;9.97;85.67;96633.63;2107096;28;20905;-67
2022/11/07 08:39:37;;;;;;;8.82;1.60;;;;;;;10.15;85.51;96643.38;2108825;28;20287;-67
2022/11/07 08:40:39;;;;;;;18.83;2.17;;;;;;;10.05;85.10;96625.47;2105017;28;20224;-67
2022/11/07 08:41:40;;;;;;;10.80;1.25;;;;;;;10.28;84.97;96653.22;2092056;28;20312;-67
2022/11/07 08:42:42;;;;;;;6.15;1.40;;;;;;;10.24;84.77;96635.97;2086774;28;20252;-66
2022/11/07 08:43:43;;;;;;;4.90;1.50;;;;;;;10.28;84.37;96619.28;2086895;28;20279;-67
2022/11/07 08:44:49;;;;;;;7.97;1.75;;;;;;;10.62;83.83;96646.50;2085728;28;20241;-68
2022/11/07 08:45:52;;;;;;;7.93;1.70;;;;;;;10.96;82.58;96654.59;2078653;28;20720;-68
2022/11/07 08:46:54;;;;;;;8.80;1.40;;;;;;;11.01;81.65;96636.94;2092483;28;20255;-66
2022/11/07 08:47:59;;;;;;;8.45;1.92;;;;;;;10.99;81.48;96653.59;2093670;28;20277;-67
2022/11/07 08:49:00;;;;;;;6.28;1.52;;;;;;;11.20;81.21;96644.75;2094842;28;20200;-68
2022/11/07 08:50:02;;;;;;;5.95;2.22;;;;;;;11.32;80.30;96645.94;2094452;28;20231;-68
2022/11/07 08:51:04;;;;;;;10.93;2.05;;;;;;;11.34;80.16;96643.25;2093158;28;20224;-67
2022/11/07 08:52:05;;;;;;;7.65;2.05;;;;;;;11.35;79.87;96640.56;2094951;28;20225;-67
2022/11/07 08:53:08;;;;;;;8.57;1.33;;;;;;;11.32;80.26;96645.94;2094947;28;20197;-68
2022/11/07 08:54:11;;;;;;;6.55;1.95;;;;;;;11.27;80.23;96640.09;2094608;28;20285;-68
2022/11/07 08:55:12;;;;;;;13.10;1.77;;;;;;;11.13;80.42;96647.75;2094904;28;20260;-67
2022/11/07 08:56:13;;;;;;;8.77;1.80;;;;;;;11.15;80.59;96641.53;2093717;28;20205;-68
2022/11/07 09:10:15;;;;;;;5.40;1.45;;;;;;;10.61;81.54;96629.16;2115510;27;20915;-65
2022/11/07 09:11:18;;;;;;;10.07;1.77;;;;;;;10.84;81.84;96655.97;2099530;28;20225;-65
2022/11/07 09:12:21;;;;;;;6.38;1.42;;;;;;;10.86;81.39;96655.94;2087590;28;20200;-65
2022/11/07 09:13:23;;;;;;;9.05;1.80;;;;;;;10.89;81.12;96654.03;2085488;28;20212;-66
2022/11/07 09:14:26;;;;;;;10.85;1.73;;;;;;;10.87;80.96;96655.88;2087133;28;20210;-66
2022/11/07 09:15:28;;;;;;;8.73;1.52;;;;;;;11.04;80.83;96657.69;2095438;28;20332;-66
2022/11/07 09:16:29;;;;;;;8.32;1.67;;;;;;;11.09;80.30;96657.47;2095987;28;20258;-66
2022/11/07 09:17:31;;;;;;;4.60;1.17;;;;;;;10.98;79.53;96657.97;2096635;28;20784;-66
2022/11/07 09:18:32;;;;;;;3.50;1.38;;;;;;;11.05;79.70;96661.16;2090242;28;20244;-66
2022/11/07 09:19:34;;;;;;;12.25;1.85;;;;;;;11.15;79.81;96662.44;2089446;28;20571;-66
2022/11/07 09:32:10;;;;;;;9.88;1.90;;;;;;;11.03;78.62;96665.59;2081824;27;20559;-65
2022/11/07 09:33:31;;;;;;;7.30;1.55;;;;;;;11.11;78.49;96666.94;2081733;28;20204;-68
2022/11/07 09:34:33;;;;;;;8.63;1.45;;;;;;;11.19;78.70;96679.66;2083968;28;20671;-68
2022/11/07 09:35:34;;;;;;;10.00;2.10;;;;;;;11.24;78.48;96676.84;2081862;28;20229;-68
2022/11/07 09:36:36;;;;;;;3.80;1.23;;;;;;;11.21;77.80;96666.50;2076765;28;20684;-67
2022/11/07 09:37:38;;;;;;;2.90;1.30;;;;;;;11.29;78.28;96674.84;2072943;28;20794;-67
2022/11/07 09:38:39;;;;;;;4.22;1.40;;;;;;;11.32;77.74;96679.09;2072879;28;20287;-67
2022/11/07 09:39:41;;;;;;;11.88;2.65;;;;;;;11.30;78.18;96671.31;2073931;28;20350;-68
2022/11/07 09:51:09;;;;;;;4.97;1.40;;;;;;;11.28;77.06;96665.31;2069738;27;1254002;-68
2022/11/07 09:52:27;;;;;;;6.18;1.60;;;;;;;11.31;77.43;96661.69;2100550;28;20291;-68
2022/11/07 09:53:32;;;;;;;4.22;1.27;;;;;;;11.29;76.96;96669.63;2097521;28;20196;-68
2022/11/07 09:54:40;;;;;;;10.32;1.40;;;;;;;11.01;76.67;96621.25;2098380;28;20278;-66
2022/11/07 09:55:50;;;;;;;4.65;1.10;;;;;;;11.35;76.79;96658.88;2097121;28;20382;-68
2022/11/07 09:56:57;;;;;;;10.88;1.60;;;;;;;11.46;76.32;96649.66;2099084;28;20340;-68
2022/11/07 10:08:08;;;;;;;7.03;1.45;;;;;;;11.60;75.57;96657.69;2083901;28;20589;-68
2022/11/07 10:09:22;;;;;;;12.88;1.90;;;;;;;11.69;75.34;96656.38;2081629;28;20225;-68
2022/11/07 10:10:45;;;;;;;4.50;1.20;;;;;;;11.76;75.42;96653.41;2082622;28;20606;-68
2022/11/07 10:12:09;;;;;;;4.47;1.20;;;;;;;11.86;74.59;96664.25;2081508;28;20229;-68
2022/11/07 10:13:43;;;;;;;5.50;1.33;;;;;;;11.87;74.97;96665.09;2081790;28;20186;-67
2022/11/07 10:15:00;;;;;;;2.53;1.27;;;;;;;11.95;74.27;96662.97;2086176;28;20236;-66
2022/11/07 10:16:22;;;;;;;6.75;1.20;;;;;;;12.01;73.46;96680.16;2077975;28;20223;-65
2022/11/07 10:17:35;;;;;;;6.03;1.42;;;;;;;12.08;73.67;96663.22;2082139;28;20248;-67
2022/11/07 10:19:11;;;;;;;6.28;1.63;;;;;;;12.32;73.35;96661.13;2081779;28;20291;-68
2022/11/07 10:20:39;;;;;;;11.20;1.40;;;;;;;13.11;71.12;96666.63;2081364;28;20263;-68
2022/11/07 10:22:05;;;;;;;5.57;1.38;;;;;;;13.06;70.83;96656.38;2079523;28;20303;-68
2022/11/07 10:23:38;;;;;;;3.97;1.10;;;;;;;12.73;71.41;96665.97;2083778;28;20687;-68
2022/11/07 10:25:11;;;;;;;6.45;1.10;;;;;;;12.81;71.50;96667.34;2081854;28;20291;-68
2022/11/07 10:26:18;;;;;;;3.13;1.15;;;;;;;12.60;72.06;96664.09;2081950;28;20281;-69
2022/11/07 10:27:22;;;;;;;1.55;0.98;;;;;;;12.49;73.08;96657.63;2082843;28;20615;-68
2022/11/07 10:28:25;;;;;;;12.60;1.63;;;;;;;12.31;73.12;96648.13;2081671;28;20189;-68
2022/11/07 10:29:46;;;;;;;4.47;1.35;;;;;;;12.46;72.62;96657.78;2082685;28;20204;-70
2022/11/07 10:30:51;;;;;;;5.93;1.20;;;;;;;12.38;72.66;96659.97;2082816;28;20201;-68
2022/11/07 10:32:07;;;;;;;6.13;1.50;;;;;;;12.66;72.03;96655.88;2081398;28;20256;-69
2022/11/07 10:33:38;;;;;;;5.72;1.50;;;;;;;12.88;71.01;96645.94;2079961;28;20667;-68
2022/11/07 10:34:54;;;;;;;5.38;1.17;;;;;;;13.25;69.79;96650.13;2085460;28;20686;-68
2022/11/07 10:36:01;;;;;;;3.78;1.17;;;;;;;13.63;69.12;96639.28;2075522;28;20234;-70
2022/11/07 10:37:03;;;;;;;4.72;1.40;;;;;;;13.27;69.66;96636.00;2081570;28;20706;-69
2022/11/07 10:38:26;;;;;;;7.80;1.75;;;;;;;13.57;69.24;96656.22;2081252;28;20228;-68
2022/11/07 10:39:30;;;;;;;6.88;1.45;;;;;;;13.53;69.31;96652.09;2081753;28;20201;-71
2022/11/07 10:40:39;;;;;;;5.47;1.45;;;;;;;14.08;67.79;96645.44;2081764;28;20260;-69
2022/11/07 10:41:45;;;;;;;5.60;1.45;;;;;;;14.45;66.68;96652.91;2080947;28;20266;-68
2022/11/07 10:42:47;;;;;;;10.85;1.73;;;;;;;14.66;64.98;96635.84;2080367;28;20257;-67
2022/11/07 10:44:02;;;;;;;8.23;1.60;;;;;;;15.07;64.68;96636.88;2078736;28;20297;-69
2022/11/07 10:45:10;;;;;;;6.57;1.35;;;;;;;15.30;63.64;96643.31;2082336;28;20206;-69
2022/11/07 10:46:39;;;;;;;9.23;1.35;;;;;;;15.17;63.30;96651.13;2079705;28;20201;-68
2022/11/07 10:47:41;;;;;;;5.75;1.20;;;;;;;15.65;62.17;96636.69;2079279;28;20226;-68
2022/11/07 10:49:00;;;;;;;13.13;1.60;;;;;;;15.83;61.66;96645.22;2078449;28;20280;-69
2022/11/07 10:50:16;;;;;;;4.05;1.00;;;;;;;14.72;63.47;96613.63;2080259;28;20236;-68
2022/11/07 10:51:39;;;;;;;5.60;1.33;;;;;;;14.01;66.18;96644.94;2081226;28;20189;-68
2022/11/07 10:52:41;;;;;;;11.05;1.50;;;;;;;13.76;67.39;96636.81;2085858;28;20244;-68
2022/11/07 10:53:44;;;;;;;3.40;1.10;;;;;;;13.59;67.59;96636.00;2086028;28;20236;-68
2022/11/07 10:54:45;;;;;;;4.90;1.02;;;;;;;13.77;67.15;96639.34;2082349;28;20380;-68
2022/11/07 10:55:49;;;;;;;5.60;1.20;;;;;;;13.73;67.58;96631.75;2081336;28;20618;-69
2022/11/07 10:57:16;;;;;;;8.55;1.42;;;;;;;14.06;66.75;96642.06;2082910;28;20420;-69
2022/11/07 10:58:27;;;;;;;4.70;1.20;;;;;;;13.53;67.59;96646.84;2081800;28;20205;-67
2022/11/07 10:59:30;;;;;;;7.05;1.25;;;;;;;13.41;68.29;96647.50;2081829;28;20233;-69
2022/11/07 11:00:39;;;;;;;12.25;1.70;;;;;;;13.47;68.57;96655.03;2083516;28;20212;-67
2022/11/07 11:01:53;;;;;;;5.68;2.00;;;;;;;13.96;67.34;96633.03;2081173;28;20304;-69
2022/11/07 11:02:55;;;;;;;15.52;2.20;;;;;;;14.61;65.90;96647.56;2082231;28;20206;-68
2022/11/07 11:03:57;;;;;;;7.65;1.60;;;;;;;14.64;64.95;96650.00;2081465;28;20288;-69
2022/11/07 11:05:03;;;;;;;6.18;1.70;;;;;;;14.71;64.68;96645.25;2081710;28;20628;-68
2022/11/07 11:06:16;;;;;;;4.18;1.05;;;;;;;15.10;64.11;96649.81;2079583;28;20197;-69
2022/11/07 11:07:18;;;;;;;2.85;1.10;;;;;;;14.91;64.23;96660.66;2080497;28;20708;-67
2022/11/07 11:08:30;;;;;;;5.13;1.23;;;;;;;15.09;63.67;96645.50;2082213;28;20570;-69
2022/11/07 11:09:34;;;;;;;4.00;1.52;;;;;;;15.07;63.72;96643.91;2081387;28;20206;-68
2022/11/07 11:10:40;;;;;;;3.13;1.15;;;;;;;15.13;63.29;96654.88;2081247;28;20272;-69
2022/11/07 11:11:44;;;;;;;10.02;1.90;;;;;;;15.27;63.36;96653.16;2081828;28;20257;-69
2022/11/07 11:12:47;;;;;;;4.90;1.10;;;;;;;14.84;63.83;96647.03;2079638;28;20204;-68
2022/11/07 11:13:48;;;;;;;4.80;1.15;;;;;;;15.09;63.75;96656.00;2080222;28;20970;-68
2022/11/07 11:14:50;;;;;;;7.03;1.40;;;;;;;14.72;64.06;96633.81;2082006;28;20217;-69
2022/11/07 11:15:51;;;;;;;6.22;1.33;;;;;;;14.97;63.79;96652.38;2078286;28;20350;-69
2022/11/07 11:16:55;;;;;;;6.45;1.50;;;;;;;14.92;63.86;96649.19;2079484;28;20316;-68
2022/11/07 11:18:13;;;;;;;5.18;1.20;;;;;;;14.63;64.70;96622.88;2082002;28;20543;-69
2022/11/07 11:19:20;;;;;;;5.35;1.17;;;;;;;14.90;64.11;96645.81;2077823;28;20197;-68
2022/11/07 11:20:37;;;;;;;9.45;1.20;;;;;;;15.29;63.75;96644.25;2075731;28;20285;-69
2022/11/07 11:21:44;;;;;;;9.95;1.40;;;;;;;15.47;63.36;96649.28;2074031;28;20318;-69
2022/11/07 11:22:45;;;;;;;5.03;1.35;;;;;;;15.18;63.75;96651.97;2077172;28;20260;-70
2022/11/07 11:23:48;;;;;;;6.47;1.20;;;;;;;14.71;64.95;96648.72;2076915;28;20297;-70
2022/11/07 11:25:17;;;;;;;3.72;1.70;;;;;;;14.35;65.63;96650.00;2072630;28;20241;-67
2022/11/07 11:26:36;;;;;;;5.20;1.40;;;;;;;14.42;65.91;96648.66;2074016;28;20285;-69
2022/11/07 11:27:38;;;;;;;5.03;1.40;;;;;;;14.43;66.36;96634.59;2084439;28;20747;-69
2022/11/07 11:29:07;;;;;;;3.85;0.90;;;;;;;14.22;66.87;96644.63;2083577;28;20240;-70
2022/11/07 11:30:17;;;;;;;6.05;1.27;;;;;;;13.99;67.21;96648.59;2075724;28;20370;-69
2022/11/07 11:31:24;;;;;;;8.73;1.48;;;;;;;14.03;67.50;96650.13;2076962;28;20301;-69
2022/11/07 11:32:55;;;;;;;9.30;1.73;;;;;;;13.94;67.07;96645.38;2076322;28;20205;-70
2022/11/07 11:34:11;;;;;;;4.60;1.42;;;;;;;13.94;67.51;96648.00;2076720;28;20799;-69
2022/11/07 11:35:43;;;;;;;11.40;1.30;;;;;;;14.06;67.30;96641.22;2076344;28;20276;-69
2022/11/07 11:36:52;;;;;;;5.78;1.35;;;;;;;14.20;67.07;96643.88;2078386;28;20259;-69
2022/11/07 11:38:01;;;;;;;3.33;1.48;;;;;;;13.92;67.96;96649.91;2079172;28;20202;-69
2022/11/07 11:39:13;;;;;;;10.63;1.00;;;;;;;13.92;68.02;96644.66;2076217;28;20301;-69
2022/11/07 11:40:20;;;;;;;13.68;1.00;;;;;;;13.86;67.52;96628.34;2076333;28;20625;-69
2022/11/07 11:41:31;;;;;;;8.68;1.58;;;;;;;14.08;66.84;96620.94;2074913;28;20313;-69
2022/11/07 11:42:47;;;;;;;10.15;1.80;;;;;;;14.47;66.40;96640.53;2075993;28;20234;-69
2022/11/07 11:44:05;;;;;;;7.90;1.67;;;;;;;14.53;65.97;96640.16;2076375;28;20225;-69
2022/11/07 11:45:22;;;;;;;5.88;1.08;;;;;;;14.44;65.54;96625.78;2075908;28;20284;-69
2022/11/07 11:46:39;;;;;;;6.63;1.40;;;;;;;14.89;64.66;96630.97;2074779;28;20702;-69
2022/11/07 11:47:50;;;;;;;11.82;1.20;;;;;;;14.96;64.19;96632.28;2077097;28;20804;-69
2022/11/07 11:49:10;;;;;;;13.50;1.30;;;;;;;15.32;63.43;96616.91;2077010;28;20735;-69
2022/11/07 11:50:23;;;;;;;13.43;1.70;;;;;;;15.50;62.86;96630.63;2076631;28;20624;-69
2022/11/07 11:51:35;;;;;;;5.10;1.05;;;;;;;14.96;63.41;96632.28;2079920;28;20318;-69
2022/11/07 11:52:37;;;;;;;7.03;1.58;;;;;;;15.26;62.38;96633.94;2078680;28;20285;-69
2022/11/07 11:53:39;;;;;;;6.10;1.17;;;;;;;14.86;63.45;96639.88;2076208;28;20288;-68
2022/11/07 11:54:42;;;;;;;10.30;2.03;;;;;;;14.76;63.57;96637.94;2077859;28;20239;-69
2022/11/07 11:55:56;;;;;;;15.90;1.42;;;;;;;14.58;64.53;96635.47;2077372;28;20225;-68
2022/11/07 11:57:07;;;;;;;12.45;2.00;;;;;;;14.57;64.75;96631.13;2082812;28;20249;-69
2022/11/07 11:58:25;;;;;;;8.73;0.93;;;;;;;14.66;65.08;96627.97;2081081;28;20316;-69
2022/11/07 11:59:55;;;;;;;7.03;1.10;;;;;;;14.49;64.50;96607.13;2075413;28;20742;-69
2022/11/07 12:01:11;;;;;;;5.82;1.48;;;;;;;15.44;62.86;96629.25;2078345;28;20693;-69
2022/11/07 12:02:31;;;;;;;6.43;1.33;;;;;;;16.69;59.89;96628.00;2076878;28;20299;-66
2022/11/07 12:04:06;;;;;;;12.80;1.83;;;;;;;16.68;58.82;96623.69;2075499;28;20198;-66
2022/11/07 12:05:17;;;;;;;4.00;1.35;;;;;;;16.65;58.57;96623.91;2073916;28;20268;-66
2022/11/07 12:06:51;;;;;;;4.28;1.35;;;;;;;16.92;56.71;96626.41;2076154;28;20198;-66
2022/11/07 12:08:30;;;;;;;3.80;1.33;;;;;;;16.96;56.41;96619.13;2071410;28;20815;-67
2022/11/07 12:10:04;;;;;;;6.88;1.15;;;;;;;15.61;60.47;96616.81;2075886;28;20360;-66
2022/11/07 12:11:17;;;;;;;5.82;1.08;;;;;;;15.29;61.72;96615.31;2072222;28;20662;-67
2022/11/07 12:12:48;;;;;;;8.00;1.70;;;;;;;15.00;62.06;96611.91;2076736;28;20289;-66
2022/11/07 12:14:20;;;;;;;4.93;1.30;;;;;;;15.14;62.14;96614.50;2074748;28;20202;-66
2022/11/07 12:15:36;;;;;;;7.10;1.88;;;;;;;15.54;61.13;96615.50;2075155;28;20285;-65
2022/11/07 12:16:37;;;;;;;4.30;1.55;;;;;;;15.95;59.03;96604.91;2075984;28;20280;-66
2022/11/07 12:17:57;;;;;;;3.47;1.40;;;;;;;16.15;58.88;96605.34;2076089;28;21054;-65
2022/11/07 12:19:30;;;;;;;3.67;1.40;;;;;;;16.80;56.62;96601.75;2077353;28;20284;-66
2022/11/07 12:20:54;;;;;;;9.02;1.42;;;;;;;17.04;55.77;96590.44;2067267;28;20222;-66
2022/11/07 12:22:15;;;;;;;9.05;1.55;;;;;;;16.78;56.06;96608.06;2077032;28;20213;-66
2022/11/07 12:23:58;;;;;;;7.35;1.20;;;;;;;16.85;55.92;96616.38;2074405;28;20788;-66
2022/11/07 12:25:22;;;;;;;3.20;1.05;;;;;;;17.16;55.02;96617.72;2070116;28;20369;-66
2022/11/07 12:26:51;;;;;;;5.68;1.20;;;;;;;17.11;55.17;96610.13;2074361;28;20218;-65
2022/11/07 12:28:23;;;;;;;1.98;1.15;;;;;;;17.16;55.39;96614.25;2075860;28;20288;-66
2022/11/07 12:29:47;;;;;;;14.88;6.32;;;;;;;17.56;54.95;96614.84;2075719;28;20218;-66
2022/11/07 12:31:07;;;;;;;4.18;1.67;;;;;;;18.12;53.37;96610.75;2076205;28;20231;-66
2022/11/07 12:32:12;;;;;;;4.03;1.33;;;;;;;17.67;53.81;96618.47;2078350;28;20249;-65
2022/11/07 12:33:39;;;;;;;4.38;1.15;;;;;;;17.23;54.85;96615.47;2077961;28;20238;-66
2022/11/07 12:35:01;;;;;;;4.05;1.33;;;;;;;17.57;54.19;96602.47;2075590;28;20233;-66
2022/11/07 12:36:36;;;;;;;7.53;1.15;;;;;;;17.10;54.60;96608.47;2075516;28;20255;-65
2022/11/07 12:37:41;;;;;;;4.93;1.00;;;;;;;17.12;55.52;96616.25;2074482;28;20382;-66
2022/11/07 12:39:05;;;;;;;4.43;1.15;;;;;;;17.49;54.58;96605.66;2072075;28;20214;-66
2022/11/07 12:40:20;;;;;;;2.28;1.05;;;;;;;17.40;54.12;96609.81;2073940;28;20681;-65
2022/11/07 12:41:27;;;;;;;5.30;1.15;;;;;;;16.45;55.53;96614.75;2084418;28;20201;-64
2022/11/07 12:42:49;;;;;;;5.43;1.17;;;;;;;16.81;55.64;96592.88;2078843;28;20719;-65
2022/11/07 12:44:18;;;;;;;3.60;1.13;;;;;;;17.00;54.86;96610.06;2073927;28;20297;-65
2022/11/07 12:45:31;;;;;;;5.55;1.65;;;;;;;17.43;54.73;96598.19;2075413;28;20234;-66
2022/11/07 12:46:47;;;;;;;4.47;1.02;;;;;;;17.20;54.24;96599.88;2074565;28;20246;-66
2022/11/07 12:48:39;;;;;;;4.75;1.30;;;;;;;17.11;54.80;96610.13;2083581;28;20287;-65
2022/11/07 12:49:43;;;;;;;7.13;1.08;;;;;;;17.18;54.79;96609.69;2082970;28;20616;-65
2022/11/07 12:50:50;;;;;;;4.95;0.93;;;;;;;16.81;55.03;96553.31;2080280;28;20194;-66
2022/11/07 12:52:00;;;;;;;3.45;1.13;;;;;;;16.62;55.31;96610.94;2073359;28;20309;-65
2022/11/07 12:53:39;;;;;;;5.28;1.20;;;;;;;16.31;55.71;96607.78;2075546;28;20283;-65
2022/11/07 12:54:59;;;;;;;4.20;0.90;;;;;;;16.56;55.44;96600.84;2073441;28;20294;-66
2022/11/07 12:56:11;;;;;;;6.22;1.42;;;;;;;16.55;55.64;96607.06;2081996;28;20205;-65
2022/11/07 12:57:19;;;;;;;6.15;0.98;;;;;;;16.35;56.21;96606.63;2081392;28;20221;-65
2022/11/07 12:58:28;;;;;;;7.50;1.02;;;;;;;16.69;55.76;96614.00;2075466;28;20202;-66
2022/11/07 12:59:31;;;;;;;5.85;0.90;;;;;;;16.23;56.11;96618.84;2074445;28;20233;-64
2022/11/07 13:00:34;;;;;;;2.90;1.08;;;;;;;16.46;56.00;96613.81;2075652;28;20230;-65
2022/11/07 13:01:54;;;;;;;5.90;1.20;;;;;;;16.49;55.91;96616.22;2074293;28;20296;-65
2022/11/07 13:03:24;;;;;;;5.50;1.17;;;;;;;16.48;55.92;96618.00;2074531;28;20201;-65
2022/11/07 13:04:40;;;;;;;6.70;1.20;;;;;;;16.16;56.69;96602.63;2082456;28;20306;-65
2022/11/07 13:06:02;;;;;;;2.88;1.20;;;;;;;16.24;56.24;96624.94;2080705;28;20702;-65
2022/11/07 13:07:16;;;;;;;4.07;1.20;;;;;;;16.19;56.94;96608.63;2074062;28;20297;-65
2022/11/07 13:08:52;;;;;;;4.75;1.40;;;;;;;16.55;56.38;96628.13;2073773;28;20640;-66
2022/11/07 13:10:12;;;;;;;2.33;1.00;;;;;;;15.68;58.29;96626.00;2076514;28;20260;-66
2022/11/07 13:11:30;;;;;;;4.68;1.15;;;;;;;15.43;59.23;96619.69;2074431;28;20201;-66
2022/11/07 13:13:05;;;;;;;3.00;1.08;;;;;;;15.18;59.82;96604.63;2083015;28;20575;-65
2022/11/07 13:14:35;;;;;;;2.22;1.00;;;;;;;15.31;60.36;96628.34;2077255;28;20293;-65
2022/11/07 13:15:37;;;;;;;7.28;1.25;;;;;;;15.82;59.60;96628.59;2075264;28;20194;-65
2022/11/07 13:17:06;;;;;;;3.30;1.00;;;;;;;15.91;59.46;96623.63;2074805;28;20703;-65
2022/11/07 13:18:26;;;;;;;5.72;1.20;;;;;;;16.07;58.63;96608.50;2077452;28;20288;-65
2022/11/07 13:19:29;;;;;;;8.73;1.05;;;;;;;16.05;58.42;96596.38;2071812;28;20237;-69
2022/11/07 13:20:34;;;;;;;13.13;1.15;;;;;;;16.09;58.38;96613.69;2075167;28;20285;-70
2022/11/07 13:21:42;;;;;;;4.40;1.05;;;;;;;16.38;58.03;96613.47;2074018;28;20308;-69
2022/11/07 13:22:44;;;;;;;6.25;1.10;;;;;;;16.20;58.04;96608.53;2074101;28;20226;-70
2022/11/07 13:23:46;;;;;;;4.97;1.00;;;;;;;15.71;58.73;96598.63;2072575;28;20244;-70
2022/11/07 13:24:52;;;;;;;3.78;1.10;;;;;;;15.67;59.42;96604.06;2074833;28;20293;-69
2022/11/07 13:25:58;;;;;;;2.92;0.80;;;;;;;15.71;58.98;96607.34;2075309;28;20313;-70
2022/11/07 13:26:59;;;;;;;5.53;1.10;;;;;;;15.19;60.20;96583.47;2074356;28;21214;-69
2022/11/07 13:28:23;;;;;;;4.88;0.95;;;;;;;14.93;60.73;96611.44;2076122;28;20639;-69
2022/11/07 13:29:36;;;;;;;13.30;1.85;;;;;;;14.81;60.88;96612.22;2075194;28;20240;-70
2022/11/07 13:30:38;;;;;;;5.85;1.40;;;;;;;14.88;61.12;96610.03;2076777;28;20669;-70
2022/11/07 13:31:44;;;;;;;3.97;0.90;;;;;;;14.82;60.88;96592.88;2074488;28;20309;-70
2022/11/07 13:32:48;;;;;;;5.63;1.23;;;;;;;14.73;61.54;96596.06;2074499;28;20222;-70
2022/11/07 13:33:49;;;;;;;2.97;0.95;;;;;;;14.76;61.28;96609.03;2071760;28;20225;-69
2022/11/07 13:34:57;;;;;;;7.35;1.58;;;;;;;14.64;62.10;96605.31;2076237;28;20230;-69
2022/11/07 13:36:12;;;;;;;13.57;5.32;;;;;;;14.70;61.98;96599.72;2075499;28;20245;-65
2022/11/07 13:37:18;;;;;;;10.88;4.18;;;;;;;15.22;60.61;96600.00;2075414;28;20213;-66
2022/11/07 13:38:22;;;;;;;4.88;2.70;;;;;;;15.30;59.94;96587.19;2076085;28;20218;-69
2022/11/07 13:39:24;;;;;;;4.75;1.17;;;;;;;15.29;59.77;96596.06;2076210;28;20324;-69
2022/11/07 13:40:40;;;;;;;6.03;1.40;;;;;;;15.34;60.15;96600.06;2073911;28;20294;-69
2022/11/07 13:41:46;;;;;;;4.35;1.25;;;;;;;14.85;61.06;96595.31;2073983;28;20224;-69
2022/11/07 13:42:55;;;;;;;7.22;1.35;;;;;;;14.75;61.86;96609.97;2075000;28;20274;-69
2022/11/07 13:44:04;;;;;;;5.50;1.05;;;;;;;14.69;62.61;96601.53;2075653;28;20292;-69
2022/11/07 13:45:26;;;;;;;7.85;1.52;;;;;;;14.67;62.73;96611.28;2075189;28;20230;-69
2022/11/07 13:46:33;;;;;;;4.07;0.90;;;;;;;14.57;62.50;96602.25;2075159;28;20740;-70
2022/11/07 13:47:40;;;;;;;5.40;1.00;;;;;;;14.44;62.59;96598.69;2075326;28;20289;-69
2022/11/07 13:48:51;;;;;;;4.30;1.08;;;;;;;14.48;63.00;96601.00;2075255;28;20549;-69
2022/11/07 13:49:59;;;;;;;5.53;1.40;;;;;;;14.43;63.39;96599.63;2074084;28;20268;-69
2022/11/07 13:51:03;;;;;;;6.15;1.55;;;;;;;14.50;63.02;96604.41;2076009;28;20901;-69
2022/11/07 13:52:15;;;;;;;5.95;1.65;;;;;;;14.19;62.92;96555.50;2074731;28;20689;-69
2022/11/07 13:53:26;;;;;;;3.40;1.08;;;;;;;14.24;62.74;96594.63;2074391;28;20194;-69
2022/11/07 13:54:34;;;;;;;6.30;1.30;;;;;;;14.16;63.23;96593.31;2073820;28;20240;-69
2022/11/07 13:55:45;;;;;;;4.63;1.05;;;;;;;14.28;62.85;96612.72;2072964;28;20780;-69
2022/11/07 13:57:01;;;;;;;4.47;1.15;;;;;;;14.31;63.04;96604.69;2073361;28;20230;-69
2022/11/07 13:58:08;;;;;;;3.17;1.00;;;;;;;14.31;62.98;96595.94;2074571;28;20226;-69
2022/11/07 13:59:27;;;;;;;6.15;0.88;;;;;;;14.31;63.16;96598.56;2074740;28;20221;-69
2022/11/07 14:00:36;;;;;;;13.32;1.67;;;;;;;14.24;63.12;96610.41;2075101;28;20612;-69
2022/11/07 14:01:43;;;;;;;7.47;1.20;;;;;;;13.95;63.06;96589.34;2075304;28;20237;-68
2022/11/07 14:02:51;;;;;;;3.28;0.93;;;;;;;13.99;63.24;96599.56;2075683;28;20202;-69
2022/11/07 14:03:52;;;;;;;3.95;1.30;;;;;;;13.96;63.44;96594.50;2075619;28;20233;-69
2022/11/07 14:05:07;;;;;;;8.25;0.93;;;;;;;13.96;63.17;96601.53;2073217;28;20310;-69
2022/11/07 14:06:18;;;;;;;5.10;0.90;;;;;;;13.79;63.63;96584.13;2075093;28;20865;-69
2022/11/07 14:07:23;;;;;;;5.72;1.70;;;;;;;13.73;64.00;96589.75;2073984;28;20229;-65
2022/11/07 14:08:37;;;;;;;8.68;1.48;;;;;;;13.70;63.93;96575.03;2074319;28;20202;-65
2022/11/07 14:09:39;;;;;;;4.65;1.70;;;;;;;13.71;63.57;96593.31;2075622;28;20237;-65
2022/11/07 14:10:46;;;;;;;4.68;1.30;;;;;;;13.78;63.79;96599.03;2074400;28;20206;-65
2022/11/07 14:11:51;;;;;;;5.50;1.20;;;;;;;13.84;63.89;96605.69;2072736;28;20316;-66
2022/11/07 14:13:06;;;;;;;4.90;1.38;;;;;;;13.87;64.31;96611.63;2074049;28;20754;-65
2022/11/07 14:14:08;;;;;;;7.43;1.15;;;;;;;13.86;64.56;96602.09;2074530;28;20849;-66
2022/11/07 14:15:15;;;;;;;3.97;1.05;;;;;;;13.70;64.25;96604.75;2078149;28;20708;-65
2022/11/07 14:16:22;;;;;;;5.57;1.42;;;;;;;13.62;64.43;96606.13;2077775;28;20274;-66
2022/11/07 14:17:34;;;;;;;4.07;1.05;;;;;;;13.59;64.84;96607.13;2074230;28;20230;-66
2022/11/07 14:18:45;;;;;;;5.30;1.00;;;;;;;13.57;64.99;96616.03;2078681;28;20210;-65
2022/11/07 14:19:47;;;;;;;3.55;0.90;;;;;;;13.50;64.79;96613.75;2077685;28;20201;-64
2022/11/07 14:20:56;;;;;;;4.03;1.10;;;;;;;13.43;65.26;96611.56;2076130;28;20244;-65
2022/11/07 14:21:59;;;;;;;2.50;0.90;;;;;;;13.31;65.30;96606.06;2074496;28;20241;-65
2022/11/07 14:23:00;;;;;;;4.05;0.98;;;;;;;13.37;66.06;96616.22;2075588;28;20221;-65
2022/11/07 14:24:18;;;;;;;6.32;1.33;;;;;;;13.37;66.30;96621.47;2074061;28;20552;-65
2022/11/07 14:25:32;;;;;;;8.68;1.00;;;;;;;13.35;66.10;96623.28;2071461;28;20202;-65
2022/11/07 14:26:34;;;;;;;5.40;1.05;;;;;;;13.31;66.06;96627.03;2072816;28;20225;-66
2022/11/07 14:27:46;;;;;;;11.55;1.20;;;;;;;13.31;66.51;96620.94;2074025;28;20206;-65
2022/11/07 14:28:48;;;;;;;9.73;1.00;;;;;;;13.15;66.45;96592.94;2074904;28;20221;-66
2022/11/07 14:29:51;;;;;;;8.88;1.23;;;;;;;13.27;66.22;96616.78;2075221;28;20309;-66
2022/11/07 14:30:53;;;;;;;2.72;0.90;;;;;;;13.12;66.14;96601.00;2073870;28;20202;-65
2022/11/07 14:32:03;;;;;;;3.95;0.80;;;;;;;13.18;66.42;96613.75;2073922;28;20269;-66
2022/11/07 14:33:20;;;;;;;4.97;1.42;;;;;;;13.18;66.40;96613.75;2075350;28;20674;-66
2022/11/07 14:34:22;;;;;;;4.25;1.05;;;;;;;13.20;66.39;96619.78;2074752;28;20201;-66
2022/11/07 14:35:28;;;;;;;5.20;1.30;;;;;;;13.05;65.98;96587.38;2071231;28;20317;-66
2022/11/07 14:36:30;;;;;;;10.35;1.40;;;;;;;13.16;66.59;96613.00;2074477;28;20684;-66
2022/11/07 14:37:33;;;;;;;8.70;1.40;;;;;;;13.13;66.83;96618.41;2071376;28;20198;-66
2022/11/07 14:38:35;;;;;;;4.50;1.23;;;;;;;13.13;66.40;96618.41;2072671;28;20214;-65
2022/11/07 14:39:36;;;;;;;11.20;1.10;;;;;;;13.08;66.61;96617.81;2074004;28;20194;-66
2022/11/07 14:40:40;;;;;;;3.13;0.80;;;;;;;13.03;67.26;96610.22;2075357;28;20276;-64
2022/11/07 14:41:43;;;;;;;11.43;5.13;;;;;;;13.06;67.55;96623.16;2075382;28;20225;-67
2022/11/07 14:42:45;;;;;;;14.75;4.05;;;;;;;13.03;67.15;96615.44;2075209;28;20224;-65
2022/11/07 14:43:48;;;;;;;3.30;1.33;;;;;;;12.96;67.54;96600.97;2075109;28;20232;-65
2022/11/07 14:44:53;;;;;;;5.35;1.23;;;;;;;13.01;67.53;96619.09;2074981;28;20298;-65
2022/11/07 14:46:02;;;;;;;3.60;0.90;;;;;;;12.94;67.76;96618.59;2075061;28;20198;-65